createdAt,value
2022-12-19T00:03:41.521Z,4.49
2022-12-19T00:08:47.947Z,4.57
2022-12-19T00:13:51.703Z,4.67
2022-12-19T00:18:57.135Z,4.61
2022-12-19T00:24:00.624Z,4.58
2022-12-19T00:29:09.847Z,4.58
2022-12-19T00:34:15.884Z,4.72
2022-12-19T00:39:19.091Z,4.97
2022-12-19T00:44:21.994Z,5.05
2022-12-19T00:49:25.002Z,4.99
2022-12-19T00:54:28.137Z,5.07
2022-12-19T00:59:31.629Z,4.15
2022-12-19T01:04:39.880Z,0.25
2022-12-19T01:09:44.915Z,-2.56
2022-12-19T01:14:49.146Z,-4.25
2022-12-19T01:19:52.167Z,-3.02
2022-12-19T01:24:55.365Z,-0.05
2022-12-19T01:29:58.471Z,0.54
2022-12-19T01:35:01.787Z,1.35
2022-12-19T01:40:05.801Z,2.49
2022-12-19T01:45:09.662Z,2.25
2022-12-19T01:50:23.732Z,2.95
2022-12-19T01:55:27.019Z,2.75
2022-12-19T02:00:30.000Z,2.84
2022-12-19T02:05:33.469Z,2.87
2022-12-19T02:10:36.522Z,3.03
2022-12-19T02:16:18.005Z,2.80
2022-12-19T02:21:48.889Z,2.95
2022-12-19T02:27:25.081Z,2.55
2022-12-19T02:32:41.504Z,1.47
2022-12-19T02:38:18.819Z,0.72
2022-12-19T02:43:23.553Z,0.02
2022-12-19T02:48:27.923Z,0.92
2022-12-19T02:53:31.019Z,0.91
2022-12-19T02:58:43.244Z,0.74
2022-12-19T03:04:21.187Z,0.35
2022-12-19T03:10:03.203Z,0.99
2022-12-19T03:15:08.034Z,-0.11
2022-12-19T03:20:22.226Z,-0.76
2022-12-19T03:25:26.564Z,-0.90
2022-12-19T03:30:33.284Z,-0.44
2022-12-19T03:35:38.355Z,-0.23
2022-12-19T03:40:45.410Z,-0.40
2022-12-19T03:46:16.507Z,-0.87
2022-12-19T03:51:47.543Z,-1.97
2022-12-19T03:57:06.217Z,-1.00
2022-12-19T04:02:11.718Z,0.01
2022-12-19T04:07:16.528Z,0.30
2022-12-19T04:12:25.373Z,0.23
2022-12-19T04:17:53.577Z,-0.50
2022-12-19T04:23:05.900Z,-0.86
2022-12-19T04:28:27.955Z,-0.33
2022-12-19T04:33:31.371Z,0.62
2022-12-19T04:38:34.748Z,0.61
2022-12-19T04:43:37.683Z,-0.11
2022-12-19T04:48:40.794Z,-0.26
2022-12-19T04:53:44.002Z,0.07
2022-12-19T04:58:47.629Z,-0.53
2022-12-19T05:03:55.731Z,0.37
2022-12-19T05:09:00.810Z,0.26
2022-12-19T05:14:04.070Z,0.47
2022-12-19T05:19:07.333Z,0.54
2022-12-19T05:24:10.335Z,-0.12
2022-12-19T05:29:13.550Z,0.10
2022-12-19T05:34:16.751Z,-0.25
2022-12-19T05:39:19.860Z,-0.05
2022-12-19T05:44:22.868Z,0.01
2022-12-19T05:49:25.872Z,-0.46
2022-12-19T05:54:29.290Z,-0.02
2022-12-19T05:59:32.707Z,-0.31
2022-12-19T06:04:35.710Z,-0.35
2022-12-19T06:09:38.723Z,-0.24
2022-12-19T06:14:42.028Z,0.07
2022-12-19T06:19:45.340Z,-0.53
2022-12-19T06:24:48.549Z,0.98
2022-12-19T06:29:51.660Z,1.22
2022-12-19T06:35:04.101Z,0.96
2022-12-19T06:40:08.403Z,1.03
2022-12-19T06:45:11.435Z,1.44
2022-12-19T06:50:14.641Z,1.40
2022-12-19T06:55:17.650Z,0.89
2022-12-19T07:00:21.962Z,-0.19
2022-12-19T07:05:25.199Z,-0.36
2022-12-19T07:10:28.567Z,0.13
2022-12-19T07:15:34.035Z,-0.70
2022-12-19T07:20:44.765Z,0.02
2022-12-19T07:25:48.380Z,0.81
2022-12-19T07:30:51.387Z,0.43
2022-12-19T07:35:54.390Z,1.08
2022-12-19T07:41:01.923Z,2.85
2022-12-19T07:46:05.180Z,3.21
2022-12-19T07:51:08.533Z,3.78
2022-12-19T07:56:11.742Z,3.40
2022-12-19T08:01:15.114Z,4.36
2022-12-19T08:06:18.269Z,3.82
2022-12-19T08:11:26.672Z,3.33
2022-12-19T08:16:29.961Z,2.25
2022-12-19T08:21:33.123Z,1.21
2022-12-19T08:26:40.648Z,0.46
2022-12-19T08:31:46.516Z,-0.17
2022-12-19T08:36:49.624Z,0.51
2022-12-19T08:41:52.731Z,0.78
2022-12-19T08:46:55.835Z,0.45
2022-12-19T08:51:58.972Z,0.68
2022-12-19T08:57:02.156Z,1.08
2022-12-19T09:02:05.166Z,1.03
2022-12-19T09:07:09.613Z,2.19
2022-12-19T09:12:14.678Z,2.37
2022-12-19T09:17:17.949Z,1.54
2022-12-19T09:22:21.302Z,2.12
2022-12-19T09:27:30.740Z,1.66
2022-12-19T09:32:33.960Z,0.94
2022-12-19T09:37:37.166Z,0.97
2022-12-19T09:42:53.987Z,1.49
2022-12-19T09:47:59.250Z,1.68
2022-12-19T09:53:19.668Z,1.36
2022-12-19T09:58:45.201Z,1.71
2022-12-19T10:04:00.448Z,1.31
2022-12-19T10:10:17.800Z,1.49
2022-12-19T10:14:35.796Z,0.90
2022-12-19T10:20:00.923Z,1.05
2022-12-19T10:25:34.975Z,1.49
2022-12-19T10:30:45.406Z,1.56
2022-12-19T10:35:54.458Z,1.52
2022-12-19T10:41:19.721Z,1.95
2022-12-19T10:46:58.522Z,2.50
2022-12-19T10:52:08.118Z,2.77
2022-12-19T10:57:19.017Z,3.05
2022-12-19T11:02:29.611Z,2.74
2022-12-19T11:07:32.844Z,2.35
2022-12-19T11:15:29.815Z,2.60
2022-12-19T11:27:03.743Z,2.98
2022-12-19T11:30:26.150Z,2.43
2022-12-19T11:35:14.641Z,2.89
2022-12-19T11:40:28.255Z,2.38
2022-12-19T11:45:58.893Z,2.51
2022-12-19T11:51:31.794Z,3.37
2022-12-19T11:56:35.415Z,3.25
2022-12-19T12:02:03.326Z,3.26
2022-12-19T12:07:11.017Z,3.57
2022-12-19T12:17:25.681Z,3.76
2022-12-19T12:31:05.780Z,3.27
2022-12-19T12:32:04.825Z,3.27
2022-12-19T12:32:06.317Z,3.25
2022-12-19T12:37:51.071Z,2.62
2022-12-19T12:41:47.724Z,2.89
2022-12-19T12:47:02.310Z,2.35
2022-12-19T12:52:09.353Z,2.89
2022-12-19T12:57:40.449Z,2.83
2022-12-19T13:02:50.585Z,2.06
2022-12-19T13:07:55.370Z,2.46
2022-12-19T13:13:19.854Z,2.20
2022-12-19T13:18:38.029Z,1.95
2022-12-19T13:23:46.169Z,2.11
2022-12-19T13:28:49.300Z,2.39
2022-12-19T13:33:53.612Z,2.96
2022-12-19T13:39:57.716Z,3.13
2022-12-19T13:44:24.444Z,3.12
2022-12-19T13:49:35.156Z,2.89
2022-12-19T13:54:48.672Z,2.74
2022-12-19T14:00:00.068Z,1.49
2022-12-19T14:05:04.246Z,1.47
2022-12-19T14:11:36.349Z,1.83
2022-12-19T14:15:44.570Z,2.46
2022-12-19T14:22:05.226Z,2.19
2022-12-19T14:28:20.528Z,2.54
2022-12-19T14:33:05.748Z,2.50
2022-12-19T14:39:02.979Z,1.80
2022-12-19T14:44:00.111Z,1.87
2022-12-19T14:54:03.650Z,1.20
2022-12-19T14:56:04.254Z,2.20
2022-12-19T14:59:48.718Z,2.02
2022-12-19T15:05:05.607Z,2.76
2022-12-19T15:11:04.724Z,2.67
2022-12-19T15:15:39.155Z,3.09
2022-12-19T15:20:42.274Z,2.81
2022-12-19T15:26:03.485Z,3.00
2022-12-19T15:31:21.857Z,2.98
2022-12-19T15:36:24.947Z,2.49
2022-12-19T15:41:28.367Z,2.35
2022-12-19T15:46:32.006Z,2.69
2022-12-19T15:51:35.716Z,2.29
2022-12-19T15:56:42.705Z,2.49
2022-12-19T16:01:45.879Z,2.41
2022-12-19T16:06:49.165Z,2.72
2022-12-19T16:11:54.289Z,2.21
2022-12-19T16:16:57.354Z,2.67
2022-12-19T16:22:01.015Z,2.88
2022-12-19T16:27:04.333Z,2.79
2022-12-19T16:32:12.772Z,2.40
2022-12-19T16:37:15.887Z,2.12
2022-12-19T16:42:19.184Z,2.20
2022-12-19T16:47:22.447Z,2.20
2022-12-19T16:52:25.503Z,2.41
2022-12-19T16:57:28.717Z,2.77
2022-12-19T17:02:51.809Z,3.19
2022-12-19T17:07:55.316Z,3.28
2022-12-19T17:12:59.739Z,2.57
2022-12-19T17:18:10.538Z,2.97
2022-12-19T17:23:21.234Z,3.47
2022-12-19T17:28:24.438Z,3.41
2022-12-19T17:33:33.487Z,3.82
2022-12-19T17:38:36.589Z,3.90
2022-12-19T17:43:39.603Z,3.56
2022-12-19T17:48:43.937Z,3.99
2022-12-19T17:53:47.657Z,4.10
2022-12-19T17:58:50.789Z,4.05
2022-12-19T18:03:56.301Z,3.79
2022-12-19T18:09:02.722Z,3.40
2022-12-19T18:14:06.032Z,3.03
2022-12-19T18:19:20.509Z,3.24
2022-12-19T18:24:25.362Z,3.91
2022-12-19T18:29:28.360Z,4.09
2022-12-19T18:34:34.579Z,4.16
2022-12-19T18:39:38.270Z,3.59
2022-12-19T18:44:41.392Z,3.80
2022-12-19T18:49:44.793Z,3.61
2022-12-19T18:54:48.225Z,3.57
2022-12-19T18:59:51.313Z,3.96
2022-12-19T19:04:55.983Z,4.29
2022-12-19T19:09:59.196Z,3.98
2022-12-19T19:15:02.512Z,4.36
2022-12-19T19:20:06.577Z,4.53
2022-12-19T19:25:09.809Z,4.80
2022-12-19T19:30:13.326Z,3.05
2022-12-19T19:35:19.606Z,0.40
2022-12-19T19:40:22.840Z,0.41
2022-12-19T19:45:27.906Z,1.06
2022-12-19T19:50:32.334Z,0.54
2022-12-19T19:55:35.445Z,1.33
2022-12-19T20:00:38.660Z,0.38
2022-12-19T20:05:41.768Z,1.79
2022-12-19T20:10:44.973Z,0.31
2022-12-19T20:15:50.093Z,1.70
2022-12-19T20:20:53.341Z,0.49
2022-12-19T20:26:01.830Z,1.81
2022-12-19T20:31:05.041Z,0.67
2022-12-19T20:36:11.053Z,1.92
2022-12-19T20:41:15.003Z,0.72
2022-12-19T20:46:20.011Z,1.46
2022-12-19T20:51:23.639Z,1.23
2022-12-19T20:56:26.782Z,1.90
2022-12-19T21:01:30.099Z,1.59
2022-12-19T21:06:33.160Z,1.50
2022-12-19T21:11:36.831Z,2.39
2022-12-19T21:16:40.196Z,1.30
2022-12-19T21:21:43.243Z,2.74
2022-12-19T21:26:49.149Z,1.31
2022-12-19T21:31:53.791Z,2.67
2022-12-19T21:36:57.395Z,1.51
2022-12-19T21:42:00.492Z,2.91
2022-12-19T21:47:04.061Z,1.81
2022-12-19T21:52:07.223Z,3.17
2022-12-19T21:57:10.430Z,1.77
2022-12-19T22:02:13.708Z,3.37
2022-12-19T22:07:16.953Z,2.90
2022-12-19T22:12:20.063Z,1.99
2022-12-19T22:17:23.623Z,3.51
2022-12-19T22:22:26.706Z,3.29
2022-12-19T22:27:29.908Z,4.52
2022-12-19T22:32:32.912Z,3.81
2022-12-19T22:37:36.033Z,4.48
2022-12-19T22:42:39.440Z,3.37
2022-12-19T22:47:42.729Z,4.26
2022-12-19T22:52:45.860Z,3.74
2022-12-19T22:57:48.860Z,4.30
2022-12-19T23:02:52.061Z,3.57
2022-12-19T23:07:55.280Z,4.69
2022-12-19T23:12:58.504Z,3.89
2022-12-19T23:18:01.716Z,5.23
2022-12-19T23:23:05.417Z,4.20
2022-12-19T23:28:09.615Z,4.96
2022-12-19T23:33:12.565Z,5.13
2022-12-19T23:38:15.580Z,5.01
2022-12-19T23:43:18.590Z,6.39
2022-12-19T23:48:26.539Z,5.24
2022-12-19T23:53:30.760Z,6.50
2022-12-19T23:58:34.180Z,5.23
